createdAt,value
2023-08-11T00:00:22.909Z,98585.84
2023-08-11T00:01:26.373Z,98590.63
2023-08-11T00:02:31.216Z,98591.22
2023-08-11T00:03:34.410Z,98590.31
2023-08-11T00:04:37.725Z,98587.69
2023-08-11T00:05:41.138Z,98587.56
2023-08-11T00:06:44.277Z,98587.69
2023-08-11T00:07:55.917Z,98584.09
2023-08-11T00:08:59.001Z,98587.56
2023-08-11T00:10:01.977Z,98589.44
2023-08-11T00:11:05.390Z,98595.41
2023-08-11T00:12:08.575Z,98587.72
2023-08-11T00:13:14.668Z,98585.56
2023-08-11T00:14:18.259Z,98582.66
2023-08-11T00:15:21.632Z,98583.25
2023-08-11T00:16:26.033Z,98596.28
2023-08-11T00:17:29.084Z,98591.50
2023-08-11T00:18:32.800Z,98593.38
2023-08-11T00:19:36.201Z,98590.94
2023-08-11T00:20:39.353Z,98590.75
2023-08-11T00:21:42.923Z,98596.56
2023-08-11T00:22:45.901Z,98590.47
2023-08-11T00:23:49.774Z,98587.00
2023-08-11T00:24:52.719Z,98599.19
2023-08-11T00:25:55.813Z,98593.38
2023-08-11T00:26:59.122Z,98587.59
2023-08-11T00:28:02.195Z,98583.25
2023-08-11T00:29:06.145Z,98583.56
2023-08-11T00:30:10.730Z,98583.84
2023-08-11T00:31:15.106Z,98586.16
2023-08-11T00:32:18.216Z,98591.94
2023-08-11T00:33:21.277Z,98584.16
2023-08-11T00:34:24.331Z,98581.81
2023-08-11T00:35:27.252Z,98583.69
2023-08-11T00:36:30.357Z,98583.97
2023-08-11T00:37:34.985Z,98580.22
2023-08-11T00:38:42.063Z,98584.28
2023-08-11T00:39:45.107Z,98580.94
2023-08-11T00:40:48.103Z,98578.19
2023-08-11T00:41:51.586Z,98571.66
2023-08-11T00:42:54.472Z,98576.16
2023-08-11T00:43:57.890Z,98575.87
2023-08-11T00:45:01.053Z,98576.31
2023-08-11T00:46:13.214Z,98579.06
2023-08-11T00:47:16.728Z,98580.25
2023-08-11T00:48:19.893Z,98575.87
2023-08-11T00:49:23.135Z,98578.22
2023-08-11T00:50:26.444Z,98578.63
2023-08-11T00:51:30.235Z,98572.28
2023-08-11T00:52:33.328Z,98574.28
2023-08-11T00:53:38.005Z,98568.34
2023-08-11T00:54:42.937Z,98578.34
2023-08-11T00:55:47.589Z,98567.75
2023-08-11T00:56:50.832Z,98579.78
2023-08-11T00:57:54.127Z,98573.41
2023-08-11T00:58:57.483Z,98578.59
2023-08-11T01:00:02.003Z,98576.56
2023-08-11T01:01:05.976Z,98577.75
2023-08-11T01:02:11.828Z,98573.97
2023-08-11T01:03:14.946Z,98577.31
2023-08-11T01:04:18.464Z,98575.87
2023-08-11T01:05:21.711Z,98573.13
2023-08-11T01:06:24.770Z,98570.91
2023-08-11T01:07:40.052Z,98574.69
2023-08-11T01:09:01.952Z,98573.81
2023-08-11T01:10:21.752Z,98573.97
2023-08-11T01:11:46.976Z,98576.56
2023-08-11T01:13:17.342Z,98577.88
2023-08-11T01:14:26.145Z,98563.53
2023-08-11T01:15:35.897Z,98566.28
2023-08-11T01:16:39.355Z,98568.94
2023-08-11T01:17:43.756Z,98569.19
2023-08-11T01:18:47.907Z,98565.72
2023-08-11T01:19:50.978Z,98567.03
2023-08-11T01:20:56.661Z,98568.78
2023-08-11T01:22:02.440Z,98568.47
2023-08-11T01:23:07.710Z,98563.81
2023-08-11T01:24:10.802Z,98565.84
2023-08-11T01:25:14.266Z,98563.56
2023-08-11T01:26:17.546Z,98558.63
2023-08-11T01:27:20.998Z,98550.97
2023-08-11T01:28:24.059Z,98559.22
2023-08-11T01:29:27.714Z,98557.47
2023-08-11T01:30:31.603Z,98562.53
2023-08-11T01:31:34.818Z,98560.22
2023-08-11T01:32:38.048Z,98559.34
2023-08-11T01:33:41.077Z,98555.56
2023-08-11T01:34:43.987Z,98555.13
2023-08-11T01:35:46.960Z,98567.75
2023-08-11T01:36:51.984Z,98558.19
2023-08-11T01:37:54.969Z,98561.66
2023-08-11T01:38:59.325Z,98557.75
2023-08-11T01:40:02.620Z,98559.34
2023-08-11T01:41:06.635Z,98554.00
2023-08-11T01:42:09.605Z,98557.03
2023-08-11T01:43:15.515Z,98563.53
2023-08-11T01:44:19.076Z,98556.75
2023-08-11T01:45:23.346Z,98563.69
2023-08-11T01:46:28.762Z,98554.72
2023-08-11T01:47:32.916Z,98565.12
2023-08-11T01:48:38.119Z,98556.59
2023-08-11T01:49:41.407Z,98557.19
2023-08-11T01:50:45.350Z,98562.25
2023-08-11T01:51:48.366Z,98548.50
2023-08-11T01:52:53.684Z,98562.13
2023-08-11T01:53:56.757Z,98562.13
2023-08-11T01:55:00.064Z,98566.19
2023-08-11T01:56:03.922Z,98565.59
2023-08-11T01:57:07.470Z,98566.19
2023-08-11T01:58:11.592Z,98568.34
2023-08-11T01:59:19.727Z,98563.72
2023-08-11T02:00:23.292Z,98568.34
2023-08-11T02:01:26.349Z,98561.41
2023-08-11T02:02:29.497Z,98561.97
2023-08-11T02:03:32.838Z,98570.38
2023-08-11T02:04:35.979Z,98566.31
2023-08-11T02:05:39.023Z,98571.22
2023-08-11T02:06:42.161Z,98561.53
2023-08-11T02:07:49.123Z,98569.38
2023-08-11T02:08:51.981Z,98574.72
2023-08-11T02:09:55.941Z,98577.75
2023-08-11T02:10:59.206Z,98567.47
2023-08-11T02:12:02.153Z,98569.66
2023-08-11T02:13:05.152Z,98573.69
2023-08-11T02:14:08.242Z,98570.94
2023-08-11T02:15:14.376Z,98570.94
2023-08-11T02:16:17.668Z,98569.66
2023-08-11T02:17:21.324Z,98576.59
2023-08-11T02:18:24.410Z,98566.19
2023-08-11T02:19:27.345Z,98559.50
2023-08-11T02:20:30.910Z,98561.81
2023-08-11T02:21:34.971Z,98568.06
2023-08-11T02:22:38.118Z,98563.13
2023-08-11T02:23:41.064Z,98562.25
2023-08-11T02:24:44.088Z,98567.34
2023-08-11T02:25:47.164Z,98568.78
2023-08-11T02:26:50.272Z,98565.28
2023-08-11T02:27:53.987Z,98562.53
2023-08-11T02:28:56.999Z,98566.59
2023-08-11T02:29:59.927Z,98562.69
2023-08-11T02:31:04.099Z,98566.16
2023-08-11T02:32:07.214Z,98576.44
2023-08-11T02:33:10.597Z,98576.00
2023-08-11T02:34:13.770Z,98567.16
2023-08-11T02:35:18.979Z,98567.16
2023-08-11T02:36:22.154Z,98567.87
2023-08-11T02:37:25.306Z,98570.81
2023-08-11T02:38:28.565Z,98569.50
2023-08-11T02:39:31.591Z,98572.97
2023-08-11T02:40:36.517Z,98567.47
2023-08-11T02:41:39.492Z,98567.59
2023-08-11T02:42:49.895Z,98569.50
2023-08-11T02:43:53.431Z,98576.44
2023-08-11T02:44:56.684Z,98566.72
2023-08-11T02:45:59.782Z,98572.97
2023-08-11T02:47:02.795Z,98579.19
2023-08-11T02:48:06.128Z,98565.84
2023-08-11T02:49:09.267Z,98577.47
2023-08-11T02:50:13.044Z,98573.41
2023-08-11T02:51:16.052Z,98571.38
2023-08-11T02:52:19.494Z,98572.84
2023-08-11T02:53:22.445Z,98570.63
2023-08-11T02:54:25.543Z,98582.84
2023-08-11T02:55:28.636Z,98580.94
2023-08-11T02:56:31.925Z,98580.34
2023-08-11T02:57:35.721Z,98571.94
2023-08-11T02:58:38.572Z,98570.94
2023-08-11T02:59:41.544Z,98570.09
2023-08-11T03:00:44.578Z,98588.47
2023-08-11T03:01:47.651Z,98584.28
2023-08-11T03:02:50.603Z,98583.56
2023-08-11T03:03:54.170Z,98580.22
2023-08-11T03:04:57.153Z,98590.22
2023-08-11T03:06:00.310Z,98587.91
2023-08-11T03:07:07.082Z,98581.97
2023-08-11T03:08:10.111Z,98583.84
2023-08-11T03:09:13.744Z,98581.53
2023-08-11T03:10:17.217Z,98587.59
2023-08-11T03:11:20.290Z,98587.59
2023-08-11T03:12:23.272Z,98588.88
2023-08-11T03:13:26.407Z,98583.84
2023-08-11T03:14:29.311Z,98595.84
2023-08-11T03:15:32.447Z,98592.22
2023-08-11T03:16:35.630Z,98593.38
2023-08-11T03:17:38.805Z,98591.19
2023-08-11T03:18:42.010Z,98586.41
2023-08-11T03:19:44.926Z,98589.31
2023-08-11T03:20:47.931Z,98594.66
2023-08-11T03:21:50.874Z,98588.44
2023-08-11T03:22:53.864Z,98581.34
2023-08-11T03:23:56.737Z,98590.34
2023-08-11T03:24:59.673Z,98586.69
2023-08-11T03:26:02.694Z,98591.47
2023-08-11T03:27:05.661Z,98584.37
2023-08-11T03:28:08.990Z,98589.72
2023-08-11T03:29:12.166Z,98593.66
2023-08-11T03:30:15.284Z,98593.47
2023-08-11T03:31:18.440Z,98593.34
2023-08-11T03:32:21.424Z,98598.84
2023-08-11T03:33:24.889Z,98591.91
2023-08-11T03:34:27.957Z,98592.31
2023-08-11T03:35:33.664Z,98597.53
2023-08-11T03:36:36.713Z,98597.38
2023-08-11T03:37:39.940Z,98599.25
2023-08-11T03:38:43.024Z,98596.34
2023-08-11T03:39:46.003Z,98596.22
2023-08-11T03:40:49.174Z,98595.50
2023-08-11T03:41:53.540Z,98595.50
2023-08-11T03:42:56.574Z,98596.94
2023-08-11T03:43:59.520Z,98597.66
2023-08-11T03:45:02.605Z,98601.13
2023-08-11T03:46:05.625Z,98598.37
2023-08-11T03:47:08.712Z,98600.41
2023-08-11T03:48:12.039Z,98599.69
2023-08-11T03:49:15.009Z,98601.84
2023-08-11T03:50:17.928Z,98600.56
2023-08-11T03:51:20.897Z,98606.22
2023-08-11T03:52:23.829Z,98602.00
2023-08-11T03:53:27.064Z,98602.75
2023-08-11T03:54:43.404Z,98604.91
2023-08-11T03:55:48.384Z,98606.06
2023-08-11T03:56:51.377Z,98603.16
2023-08-11T03:57:54.429Z,98605.59
2023-08-11T03:58:57.694Z,98599.81
2023-08-11T04:00:00.631Z,98600.53
2023-08-11T04:01:03.653Z,98603.28
2023-08-11T04:02:06.911Z,98609.50
2023-08-11T04:03:10.896Z,98601.84
2023-08-11T04:04:14.076Z,98600.84
2023-08-11T04:05:18.346Z,98607.78
2023-08-11T04:06:21.480Z,98608.34
2023-08-11T04:07:24.435Z,98607.78
2023-08-11T04:08:28.589Z,98609.38
2023-08-11T04:09:31.554Z,98602.00
2023-08-11T04:10:36.544Z,98606.22
2023-08-11T04:11:39.509Z,98605.78
2023-08-11T04:12:42.543Z,98606.06
2023-08-11T04:13:45.496Z,98612.31
2023-08-11T04:14:48.659Z,98611.16
2023-08-11T04:15:52.863Z,98610.28
2023-08-11T04:16:56.129Z,98613.91
2023-08-11T04:17:59.414Z,98612.03
2023-08-11T04:19:02.786Z,98614.22
2023-08-11T04:20:14.609Z,98618.41
2023-08-11T04:21:18.504Z,98619.00
2023-08-11T04:22:32.908Z,98614.34
2023-08-11T04:23:41.789Z,98616.38
2023-08-11T04:24:44.659Z,98622.59
2023-08-11T04:25:47.557Z,98619.28
2023-08-11T04:26:50.433Z,98634.50
2023-08-11T04:27:53.346Z,98631.16
2023-08-11T04:28:56.388Z,98627.69
2023-08-11T04:29:59.399Z,98621.47
2023-08-11T04:31:02.446Z,98632.47
2023-08-11T04:32:06.344Z,98628.25
2023-08-11T04:33:09.860Z,98623.50
2023-08-11T04:34:12.994Z,98633.03
2023-08-11T04:35:15.996Z,98625.66
2023-08-11T04:36:18.949Z,98622.47
2023-08-11T04:37:21.921Z,98622.03
2023-08-11T04:38:25.122Z,98623.66
2023-08-11T04:39:28.034Z,98627.28
2023-08-11T04:40:31.430Z,98623.22
2023-08-11T04:41:34.232Z,98628.16
2023-08-11T04:42:37.372Z,98627.72
2023-08-11T04:43:40.277Z,98627.28
2023-08-11T04:44:43.265Z,98633.66
2023-08-11T04:45:46.548Z,98627.88
2023-08-11T04:46:49.660Z,98628.19
2023-08-11T04:47:52.745Z,98639.19
2023-08-11T04:48:55.723Z,98636.75
2023-08-11T04:49:58.783Z,98642.25
2023-08-11T04:51:01.785Z,98639.34
2023-08-11T04:52:05.175Z,98640.94
2023-08-11T04:53:08.511Z,98638.91
2023-08-11T04:54:13.040Z,98642.53
2023-08-11T04:55:16.065Z,98644.84
2023-08-11T04:56:18.985Z,98648.50
2023-08-11T04:57:22.010Z,98649.34
2023-08-11T04:58:25.055Z,98650.25
2023-08-11T04:59:28.052Z,98653.84
2023-08-11T05:00:31.020Z,98653.97
2023-08-11T05:01:34.122Z,98647.47
2023-08-11T05:02:37.212Z,98651.09
2023-08-11T05:03:40.398Z,98653.25
2023-08-11T05:04:43.616Z,98651.22
2023-08-11T05:05:46.785Z,98653.56
2023-08-11T05:06:49.718Z,98657.16
2023-08-11T05:07:52.832Z,98651.94
2023-08-11T05:08:55.996Z,98666.87
2023-08-11T05:09:59.421Z,98656.88
2023-08-11T05:11:02.479Z,98661.97
2023-08-11T05:12:06.251Z,98662.81
2023-08-11T05:13:09.443Z,98658.72
2023-08-11T05:14:15.754Z,98654.22
2023-08-11T05:15:19.405Z,98659.13
2023-08-11T05:16:22.579Z,98662.75
2023-08-11T05:17:25.749Z,98662.31
2023-08-11T05:18:37.966Z,98662.28
2023-08-11T05:19:46.650Z,98661.97
2023-08-11T05:20:49.561Z,98663.41
2023-08-11T05:21:53.085Z,98667.00
2023-08-11T05:22:56.142Z,98666.81
2023-08-11T05:23:59.106Z,98662.16
2023-08-11T05:25:06.107Z,98670.13
2023-08-11T05:26:09.136Z,98676.19
2023-08-11T05:27:12.163Z,98675.97
2023-08-11T05:28:15.315Z,98677.38
2023-08-11T05:29:18.337Z,98678.38
2023-08-11T05:30:26.003Z,98679.38
2023-08-11T05:31:29.154Z,98677.00
2023-08-11T05:32:33.102Z,98677.34
2023-08-11T05:33:36.477Z,98680.75
2023-08-11T05:34:40.305Z,98678.28
2023-08-11T05:35:43.239Z,98678.44
2023-08-11T05:36:46.192Z,98674.87
2023-08-11T05:37:48.988Z,98675.87
2023-08-11T05:38:52.219Z,98681.63
2023-08-11T05:39:55.346Z,98681.91
2023-08-11T05:40:58.506Z,98685.78
2023-08-11T05:42:02.184Z,98685.59
2023-08-11T05:43:05.040Z,98678.25
2023-08-11T05:44:08.194Z,98679.38
2023-08-11T05:45:11.757Z,98679.84
2023-08-11T05:46:15.479Z,98682.16
2023-08-11T05:47:18.440Z,98681.81
2023-08-11T05:48:21.560Z,98681.56
2023-08-11T05:49:24.523Z,98686.62
2023-08-11T05:50:27.598Z,98680.88
2023-08-11T05:51:30.681Z,98677.13
2023-08-11T05:52:33.627Z,98684.50
2023-08-11T05:53:36.635Z,98688.69
2023-08-11T05:54:39.579Z,98685.47
2023-08-11T05:55:42.751Z,98675.22
2023-08-11T05:56:45.673Z,98685.09
2023-08-11T05:57:48.784Z,98678.25
2023-08-11T05:58:51.827Z,98678.59
2023-08-11T05:59:54.833Z,98674.03
2023-08-11T06:00:58.076Z,98680.41
2023-08-11T06:02:01.139Z,98686.78
2023-08-11T06:03:04.330Z,98682.81
2023-08-11T06:04:07.549Z,98685.09
2023-08-11T06:05:10.821Z,98686.06
2023-08-11T06:06:14.064Z,98687.72
2023-08-11T06:07:17.190Z,98689.91
2023-08-11T06:08:20.166Z,98692.81
2023-08-11T06:09:24.322Z,98688.13
2023-08-11T06:10:28.017Z,98698.69
2023-08-11T06:11:30.899Z,98699.75
2023-08-11T06:12:34.092Z,98697.37
2023-08-11T06:13:37.353Z,98697.81
2023-08-11T06:14:40.342Z,98707.56
2023-08-11T06:15:43.326Z,98710.47
2023-08-11T06:16:46.498Z,98708.06
2023-08-11T06:17:51.563Z,98704.19
2023-08-11T06:18:54.569Z,98706.44
2023-08-11T06:19:58.955Z,98708.00
2023-08-11T06:21:05.277Z,98703.28
2023-08-11T06:22:08.832Z,98708.22
2023-08-11T06:23:12.050Z,98710.50
2023-08-11T06:24:15.047Z,98710.66
2023-08-11T06:25:18.345Z,98715.81
2023-08-11T06:26:21.348Z,98706.25
2023-08-11T06:27:24.469Z,98715.44
2023-08-11T06:28:27.456Z,98708.16
2023-08-11T06:29:30.526Z,98711.88
2023-08-11T06:30:33.525Z,98716.91
2023-08-11T06:31:36.520Z,98707.50
2023-08-11T06:32:39.594Z,98714.72
2023-08-11T06:33:42.723Z,98716.28
2023-08-11T06:34:45.772Z,98715.75
2023-08-11T06:35:48.992Z,98718.75
2023-08-11T06:36:52.015Z,98717.78
2023-08-11T06:37:55.669Z,98724.28
2023-08-11T06:38:58.746Z,98715.56
2023-08-11T06:40:01.851Z,98717.94
2023-08-11T06:41:05.064Z,98721.16
2023-08-11T06:42:08.223Z,98725.56
2023-08-11T06:43:11.253Z,98711.69
2023-08-11T06:44:14.211Z,98729.81
2023-08-11T06:45:17.388Z,98723.75
2023-08-11T06:46:20.599Z,98718.50
2023-08-11T06:47:25.143Z,98722.34
2023-08-11T06:48:29.197Z,98727.69
2023-08-11T06:49:32.150Z,98730.28
2023-08-11T06:50:35.354Z,98729.47
2023-08-11T06:51:38.418Z,98731.62
2023-08-11T06:52:41.442Z,98724.75
2023-08-11T06:53:44.377Z,98734.19
2023-08-11T06:54:47.355Z,98730.63
2023-08-11T06:55:50.287Z,98727.13
2023-08-11T06:56:53.295Z,98731.66
2023-08-11T06:57:56.300Z,98733.91
2023-08-11T06:58:59.741Z,98732.47
2023-08-11T07:00:02.695Z,98733.41
2023-08-11T07:01:05.710Z,98740.59
2023-08-11T07:02:08.767Z,98732.34
2023-08-11T07:03:11.797Z,98731.72
2023-08-11T07:04:14.873Z,98727.59
2023-08-11T07:05:18.090Z,98736.75
2023-08-11T07:06:21.013Z,98729.53
2023-08-11T07:07:24.117Z,98726.41
2023-08-11T07:08:27.169Z,98729.31
2023-08-11T07:09:30.313Z,98731.13
2023-08-11T07:10:34.198Z,98733.47
2023-08-11T07:11:37.400Z,98734.19
2023-08-11T07:12:40.508Z,98733.59
2023-08-11T07:13:43.789Z,98734.47
2023-08-11T07:14:47.237Z,98735.94
2023-08-11T07:15:50.120Z,98739.53
2023-08-11T07:16:53.133Z,98741.69
2023-08-11T07:17:56.257Z,98739.19
2023-08-11T07:18:59.343Z,98737.16
2023-08-11T07:20:02.382Z,98735.37
2023-08-11T07:21:05.467Z,98745.25
2023-08-11T07:22:08.721Z,98734.34
2023-08-11T07:23:12.442Z,98733.09
2023-08-11T07:24:15.464Z,98737.50
2023-08-11T07:25:18.564Z,98741.00
2023-08-11T07:26:21.700Z,98739.12
2023-08-11T07:27:24.776Z,98743.00
2023-08-11T07:28:27.866Z,98738.69
2023-08-11T07:29:30.764Z,98739.50
2023-08-11T07:30:33.733Z,98742.63
2023-08-11T07:31:36.760Z,98744.19
2023-08-11T07:32:39.913Z,98739.22
2023-08-11T07:33:44.035Z,98742.56
2023-08-11T07:34:47.093Z,98739.84
2023-08-11T07:35:50.116Z,98733.75
2023-08-11T07:36:53.419Z,98740.75
2023-08-11T07:37:56.779Z,98745.81
2023-08-11T07:39:12.857Z,98750.56
2023-08-11T07:40:22.949Z,98747.41
2023-08-11T07:41:25.843Z,98745.25
2023-08-11T07:42:28.819Z,98752.25
2023-08-11T07:43:31.858Z,98746.78
2023-08-11T07:44:35.424Z,98741.38
2023-08-11T07:45:38.399Z,98754.03
2023-08-11T07:46:41.726Z,98745.19
2023-08-11T07:47:45.017Z,98742.25
2023-08-11T07:48:49.290Z,98750.22
2023-08-11T07:49:52.360Z,98751.81
2023-08-11T07:50:55.430Z,98750.37
2023-08-11T07:52:00.996Z,98744.34
2023-08-11T07:53:04.853Z,98753.53
2023-08-11T07:54:08.217Z,98748.75
2023-08-11T07:55:11.794Z,98757.34
2023-08-11T07:56:15.549Z,98758.97
2023-08-11T07:57:18.790Z,98757.78
2023-08-11T07:58:21.959Z,98760.09
2023-08-11T07:59:24.898Z,98760.88
2023-08-11T08:00:27.969Z,98759.00
2023-08-11T08:01:31.207Z,98746.97
2023-08-11T08:02:34.664Z,98757.81
2023-08-11T08:03:40.138Z,98750.25
2023-08-11T08:04:44.033Z,98760.13
2023-08-11T08:05:47.063Z,98757.50
2023-08-11T08:06:50.302Z,98763.78
2023-08-11T08:07:53.223Z,98756.94
2023-08-11T08:08:56.098Z,98758.53
2023-08-11T08:09:59.093Z,98754.19
2023-08-11T08:11:03.169Z,98756.25
2023-08-11T08:12:06.763Z,98761.28
2023-08-11T08:13:09.805Z,98749.69
2023-08-11T08:14:13.449Z,98756.16
2023-08-11T08:15:18.472Z,98762.62
2023-08-11T08:16:21.978Z,98762.94
2023-08-11T08:17:25.159Z,98765.25
2023-08-11T08:18:28.343Z,98764.84
2023-08-11T08:19:31.349Z,98763.25
2023-08-11T08:20:34.314Z,98764.25
2023-08-11T08:21:37.371Z,98764.69
2023-08-11T08:22:40.867Z,98761.69
2023-08-11T08:23:43.795Z,98768.00
2023-08-11T08:24:47.056Z,98760.38
2023-08-11T08:25:50.059Z,98767.13
2023-08-11T08:26:53.129Z,98760.25
2023-08-11T08:28:06.310Z,98768.69
2023-08-11T08:29:10.930Z,98762.47
2023-08-11T08:30:14.263Z,98770.44
2023-08-11T08:31:17.518Z,98765.34
2023-08-11T08:32:23.356Z,98769.72
2023-08-11T08:33:26.441Z,98766.97
2023-08-11T08:34:29.488Z,98763.75
2023-08-11T08:35:32.562Z,98759.00
2023-08-11T08:36:35.623Z,98769.75
2023-08-11T08:37:39.146Z,98766.47
2023-08-11T08:38:42.170Z,98771.56
2023-08-11T08:39:45.916Z,98771.72
2023-08-11T08:40:49.696Z,98768.59
2023-08-11T08:41:53.213Z,98773.72
2023-08-11T08:42:56.369Z,98766.31
2023-08-11T08:44:02.225Z,98768.59
2023-08-11T08:45:06.502Z,98766.00
2023-08-11T08:46:10.827Z,98766.37
2023-08-11T08:47:14.480Z,98768.59
2023-08-11T08:48:27.080Z,98770.12
2023-08-11T08:49:30.323Z,98768.06
2023-08-11T08:50:34.000Z,98766.81
2023-08-11T08:51:40.677Z,98767.03
2023-08-11T08:52:44.283Z,98770.47
2023-08-11T08:53:47.657Z,98768.97
2023-08-11T08:54:50.689Z,98774.47
2023-08-11T08:55:53.981Z,98768.31
2023-08-11T08:56:59.253Z,98774.94
2023-08-11T08:58:02.384Z,98780.78
2023-08-11T08:59:06.719Z,98777.44
2023-08-11T09:00:10.192Z,98784.56
2023-08-11T09:01:14.716Z,98776.31
2023-08-11T09:02:29.511Z,98782.72
2023-08-11T09:03:33.516Z,98772.44
2023-08-11T09:04:37.295Z,98776.75
2023-08-11T09:05:40.432Z,98776.78
2023-08-11T09:06:44.412Z,98775.50
2023-08-11T09:07:47.548Z,98773.87
2023-08-11T09:08:50.610Z,98775.72
2023-08-11T09:09:53.573Z,98770.06
2023-08-11T09:10:56.559Z,98775.84
2023-08-11T09:12:02.399Z,98776.97
2023-08-11T09:13:05.657Z,98774.94
2023-08-11T09:14:10.143Z,98775.59
2023-08-11T09:15:13.785Z,98780.59
2023-08-11T09:16:17.065Z,98779.84
2023-08-11T09:17:20.325Z,98777.03
2023-08-11T09:18:24.157Z,98782.03
2023-08-11T09:19:27.538Z,98778.50
2023-08-11T09:20:30.740Z,98787.63
2023-08-11T09:21:33.821Z,98766.63
2023-08-11T09:22:39.796Z,98775.94
2023-08-11T09:23:44.611Z,98777.50
2023-08-11T09:24:47.946Z,98775.09
2023-08-11T09:25:54.932Z,98779.47
2023-08-11T09:26:59.819Z,98775.56
2023-08-11T09:28:04.066Z,98771.44
2023-08-11T09:29:07.167Z,98771.59
2023-08-11T09:30:11.558Z,98780.22
2023-08-11T09:31:14.716Z,98771.91
2023-08-11T09:32:18.094Z,98772.19
2023-08-11T09:33:24.086Z,98778.44
2023-08-11T09:34:27.433Z,98773.87
2023-08-11T09:35:30.855Z,98770.44
2023-08-11T09:36:34.268Z,98775.91
2023-08-11T09:37:38.324Z,98773.19
2023-08-11T09:38:43.115Z,98776.81
2023-08-11T09:39:46.292Z,98766.28
2023-08-11T09:40:50.243Z,98769.62
2023-08-11T09:41:53.199Z,98772.97
2023-08-11T09:42:57.484Z,98773.75
2023-08-11T09:44:00.759Z,98768.69
2023-08-11T09:45:04.095Z,98772.28
2023-08-11T09:46:07.310Z,98775.34
2023-08-11T09:47:17.557Z,98772.69
2023-08-11T09:48:25.624Z,98767.91
2023-08-11T09:49:28.635Z,98762.59
2023-08-11T09:50:36.356Z,98769.78
2023-08-11T09:51:41.362Z,98770.59
2023-08-11T09:52:45.044Z,98773.75
2023-08-11T09:53:48.623Z,98771.72
2023-08-11T09:54:55.029Z,98770.53
2023-08-11T09:55:59.569Z,98762.88
2023-08-11T09:57:03.162Z,98759.00
2023-08-11T09:58:10.144Z,98762.25
2023-08-11T09:59:16.148Z,98758.72
2023-08-11T10:00:20.990Z,98771.53
2023-08-11T10:01:25.433Z,98769.09
2023-08-11T10:02:33.343Z,98765.69
2023-08-11T10:03:49.688Z,98766.53
2023-08-11T10:05:05.568Z,98765.84
2023-08-11T10:06:11.691Z,98765.00
2023-08-11T10:07:18.741Z,98767.81
2023-08-11T10:08:25.571Z,98764.31
2023-08-11T10:09:33.601Z,98759.63
2023-08-11T10:10:38.832Z,98761.69
2023-08-11T10:11:44.987Z,98759.41
2023-08-11T10:13:04.509Z,98756.88
2023-08-11T10:14:07.986Z,98760.56
2023-08-11T10:15:13.135Z,98757.97
2023-08-11T10:16:16.955Z,98769.75
2023-08-11T10:17:20.673Z,98763.91
2023-08-11T10:18:24.978Z,98771.66
2023-08-11T10:19:28.326Z,98755.59
2023-08-11T10:20:31.741Z,98759.00
2023-08-11T10:21:35.889Z,98764.56
2023-08-11T10:22:39.409Z,98758.53
2023-08-11T10:23:42.766Z,98763.22
2023-08-11T10:24:48.258Z,98758.50
2023-08-11T10:25:52.555Z,98765.13
2023-08-11T10:26:56.029Z,98758.34
2023-08-11T10:27:59.898Z,98756.28
2023-08-11T10:29:03.318Z,98756.97
2023-08-11T10:30:09.362Z,98764.91
2023-08-11T10:31:12.640Z,98758.94
2023-08-11T10:32:16.348Z,98762.16
2023-08-11T10:33:20.804Z,98760.47
2023-08-11T10:34:25.251Z,98757.03
2023-08-11T10:35:49.001Z,98762.94
2023-08-11T10:36:55.269Z,98761.06
2023-08-11T10:37:59.191Z,98764.88
2023-08-11T10:39:08.072Z,98765.47
2023-08-11T10:40:12.100Z,98761.00
2023-08-11T10:41:20.113Z,98762.72
2023-08-11T10:42:23.212Z,98759.25
2023-08-11T10:43:36.707Z,98755.62
2023-08-11T10:44:44.836Z,98750.84
2023-08-11T10:45:47.966Z,98750.34
2023-08-11T10:46:53.101Z,98748.16
2023-08-11T10:47:56.998Z,98750.87
2023-08-11T10:49:06.266Z,98749.81
2023-08-11T10:50:10.387Z,98752.41
2023-08-11T10:51:33.858Z,98748.59
2023-08-11T10:52:37.241Z,98748.44
2023-08-11T10:53:41.605Z,98753.75
2023-08-11T10:54:52.568Z,98746.94
2023-08-11T10:56:03.132Z,98745.78
2023-08-11T10:57:06.315Z,98750.31
2023-08-11T10:58:17.946Z,98746.19
2023-08-11T10:59:25.804Z,98749.88
2023-08-11T11:00:28.711Z,98758.25
2023-08-11T11:01:31.708Z,98755.94
2023-08-11T11:02:36.704Z,98766.19
2023-08-11T11:03:43.002Z,98751.09
2023-08-11T11:04:46.340Z,98747.31
2023-08-11T11:05:49.358Z,98741.63
2023-08-11T11:06:52.575Z,98749.84
2023-08-11T11:07:55.706Z,98751.84
2023-08-11T11:08:58.587Z,98745.41
2023-08-11T11:10:01.732Z,98743.09
2023-08-11T11:11:04.773Z,98744.75
2023-08-11T11:12:08.308Z,98748.66
2023-08-11T11:13:11.648Z,98743.97
2023-08-11T11:14:14.914Z,98745.69
2023-08-11T11:15:18.236Z,98737.13
2023-08-11T11:16:22.367Z,98740.16
2023-08-11T11:17:25.449Z,98741.81
2023-08-11T11:18:28.972Z,98752.66
2023-08-11T11:19:32.580Z,98747.03
2023-08-11T11:20:35.686Z,98743.50
2023-08-11T11:21:41.960Z,98747.94
2023-08-11T11:22:50.121Z,98751.34
2023-08-11T11:23:53.229Z,98748.94
2023-08-11T11:25:04.223Z,98743.28
2023-08-11T11:26:07.105Z,98743.41
2023-08-11T11:27:10.111Z,98740.00
2023-08-11T11:28:13.974Z,98737.38
2023-08-11T11:29:17.882Z,98741.72
2023-08-11T11:30:21.479Z,98738.34
2023-08-11T11:31:27.368Z,98737.22
2023-08-11T11:32:30.362Z,98738.72
2023-08-11T11:33:33.519Z,98729.53
2023-08-11T11:34:38.954Z,98742.22
2023-08-11T11:35:42.362Z,98732.25
2023-08-11T11:36:45.525Z,98734.31
2023-08-11T11:37:48.713Z,98737.81
2023-08-11T11:38:53.381Z,98737.28
2023-08-11T11:39:57.439Z,98740.19
2023-08-11T11:41:00.700Z,98734.06
2023-08-11T11:42:08.400Z,98737.69
2023-08-11T11:43:12.052Z,98743.75
2023-08-11T11:44:16.112Z,98742.72
2023-08-11T11:45:19.490Z,98746.06
2023-08-11T11:46:25.433Z,98735.53
2023-08-11T11:47:29.285Z,98738.53
2023-08-11T11:48:32.273Z,98744.34
2023-08-11T11:49:35.555Z,98735.81
2023-08-11T11:50:38.821Z,98745.50
2023-08-11T11:51:42.979Z,98753.09
2023-08-11T11:52:48.846Z,98747.28
2023-08-11T11:53:53.428Z,98749.84
2023-08-11T11:54:57.016Z,98744.91
2023-08-11T11:56:00.182Z,98740.25
2023-08-11T11:57:09.081Z,98739.81
2023-08-11T11:58:19.349Z,98741.47
2023-08-11T11:59:23.010Z,98738.16
2023-08-11T12:00:26.935Z,98746.84
2023-08-11T12:01:30.685Z,98743.59
2023-08-11T12:02:33.976Z,98739.38
2023-08-11T12:03:37.608Z,98740.09
2023-08-11T12:04:44.035Z,98737.78
2023-08-11T12:05:47.157Z,98744.03
2023-08-11T12:06:50.307Z,98736.09
2023-08-11T12:07:53.349Z,98735.00
2023-08-11T12:09:05.295Z,98740.34
2023-08-11T12:10:08.724Z,98740.00
2023-08-11T12:11:14.214Z,98729.50
2023-08-11T12:12:17.209Z,98727.31
2023-08-11T12:13:20.239Z,98736.37
2023-08-11T12:14:27.174Z,98731.44
2023-08-11T12:15:32.661Z,98738.47
2023-08-11T12:16:36.835Z,98732.16
2023-08-11T12:17:39.730Z,98745.75
2023-08-11T12:18:43.335Z,98742.53
2023-08-11T12:19:47.521Z,98741.84
2023-08-11T12:20:51.781Z,98733.41
2023-08-11T12:21:54.785Z,98729.09
2023-08-11T12:22:57.902Z,98726.28
2023-08-11T12:24:00.944Z,98732.81
2023-08-11T12:25:04.936Z,98729.97
2023-08-11T12:26:09.174Z,98732.06
2023-08-11T12:27:12.641Z,98733.50
2023-08-11T12:28:15.592Z,98730.00
2023-08-11T12:29:18.589Z,98731.50
2023-08-11T12:30:21.748Z,98734.41
2023-08-11T12:31:24.773Z,98735.84
2023-08-11T12:32:27.666Z,98737.31
2023-08-11T12:33:31.265Z,98733.16